sensor_id;sensor_type;location;lat;lon;timestamp;P1;durP1;ratioP1;P2;durP2;ratioP2
18793;SDS011;29610;49.022;12.114;2022-11-12T00:01:49;176.17;;;18.17;;
18793;SDS011;29610;49.022;12.114;2022-11-12T00:04:36;194.43;;;17.30;;
18793;SDS011;29610;49.022;12.114;2022-11-12T00:07:24;143.00;;;14.60;;
18793;SDS011;29610;49.022;12.114;2022-11-12T00:10:11;88.93;;;12.73;;
18793;SDS011;29610;49.022;12.114;2022-11-12T00:12:58;39.40;;;10.40;;
18793;SDS011;29610;49.022;12.114;2022-11-12T00:15:46;54.20;;;10.80;;
18793;SDS011;29610;49.022;12.114;2022-11-12T00:18:33;86.97;;;12.10;;
18793;SDS011;29610;49.022;12.114;2022-11-12T00:21:20;91.00;;;12.30;;
18793;SDS011;29610;49.022;12.114;2022-11-12T00:24:07;143.13;;;16.10;;
18793;SDS011;29610;49.022;12.114;2022-11-12T00:26:54;178.20;;;16.70;;
18793;SDS011;29610;49.022;12.114;2022-11-12T00:29:42;83.93;;;11.87;;
18793;SDS011;29610;49.022;12.114;2022-11-12T00:32:31;129.93;;;12.40;;
18793;SDS011;29610;49.022;12.114;2022-11-12T00:35:21;50.23;;;11.10;;
18793;SDS011;29610;49.022;12.114;2022-11-12T00:38:08;87.63;;;13.17;;
18793;SDS011;29610;49.022;12.114;2022-11-12T00:40:57;72.97;;;12.17;;
18793;SDS011;29610;49.022;12.114;2022-11-12T00:43:44;71.20;;;11.63;;
18793;SDS011;29610;49.022;12.114;2022-11-12T00:46:31;135.20;;;14.30;;
18793;SDS011;29610;49.022;12.114;2022-11-12T00:49:20;138.00;;;15.33;;
18793;SDS011;29610;49.022;12.114;2022-11-12T00:52:07;103.53;;;13.40;;
18793;SDS011;29610;49.022;12.114;2022-11-12T00:54:54;122.37;;;15.90;;
18793;SDS011;29610;49.022;12.114;2022-11-12T00:57:41;176.23;;;18.73;;
18793;SDS011;29610;49.022;12.114;2022-11-12T01:00:29;94.53;;;14.43;;
18793;SDS011;29610;49.022;12.114;2022-11-12T01:03:16;61.60;;;11.10;;
18793;SDS011;29610;49.022;12.114;2022-11-12T01:06:05;167.50;;;16.73;;
18793;SDS011;29610;49.022;12.114;2022-11-12T01:08:55;81.63;;;12.60;;
18793;SDS011;29610;49.022;12.114;2022-11-12T01:11:42;70.90;;;11.67;;
18793;SDS011;29610;49.022;12.114;2022-11-12T01:14:29;94.53;;;11.77;;
18793;SDS011;29610;49.022;12.114;2022-11-12T01:17:16;128.80;;;14.50;;
18793;SDS011;29610;49.022;12.114;2022-11-12T01:20:04;54.27;;;10.00;;
18793;SDS011;29610;49.022;12.114;2022-11-12T01:22:54;118.37;;;12.43;;
18793;SDS011;29610;49.022;12.114;2022-11-12T01:25:41;142.90;;;12.30;;
18793;SDS011;29610;49.022;12.114;2022-11-12T01:28:28;64.30;;;11.33;;
18793;SDS011;29610;49.022;12.114;2022-11-12T01:31:15;105.93;;;12.20;;
18793;SDS011;29610;49.022;12.114;2022-11-12T01:34:07;56.03;;;10.70;;
18793;SDS011;29610;49.022;12.114;2022-11-12T01:36:54;108.00;;;10.37;;
18793;SDS011;29610;49.022;12.114;2022-11-12T01:39:42;106.37;;;11.23;;
18793;SDS011;29610;49.022;12.114;2022-11-12T01:42:30;64.63;;;9.07;;
18793;SDS011;29610;49.022;12.114;2022-11-12T01:45:18;39.03;;;7.03;;
18793;SDS011;29610;49.022;12.114;2022-11-12T01:48:06;96.70;;;11.73;;
18793;SDS011;29610;49.022;12.114;2022-11-12T01:51:11;64.00;;;12.00;;
18793;SDS011;29610;49.022;12.114;2022-11-12T01:54:01;117.30;;;12.80;;
18793;SDS011;29610;49.022;12.114;2022-11-12T01:57:00;120.37;;;14.33;;
18793;SDS011;29610;49.022;12.114;2022-11-12T01:59:49;131.67;;;12.83;;
18793;SDS011;29610;49.022;12.114;2022-11-12T02:02:50;133.37;;;13.93;;
18793;SDS011;29610;49.022;12.114;2022-11-12T02:05:41;193.10;;;15.23;;
18793;SDS011;29610;49.022;12.114;2022-11-12T02:08:29;87.17;;;12.70;;
18793;SDS011;29610;49.022;12.114;2022-11-12T02:11:19;153.97;;;14.40;;
18793;SDS011;29610;49.022;12.114;2022-11-12T02:14:08;143.33;;;11.50;;
18793;SDS011;29610;49.022;12.114;2022-11-12T02:16:54;98.63;;;11.40;;
18793;SDS011;29610;49.022;12.114;2022-11-12T02:19:42;131.00;;;11.37;;
18793;SDS011;29610;49.022;12.114;2022-11-12T02:22:30;84.93;;;10.30;;
18793;SDS011;29610;49.022;12.114;2022-11-12T02:25:18;123.43;;;10.90;;
18793;SDS011;29610;49.022;12.114;2022-11-12T02:28:09;100.80;;;9.23;;
18793;SDS011;29610;49.022;12.114;2022-11-12T02:30:56;104.37;;;10.00;;
18793;SDS011;29610;49.022;12.114;2022-11-12T02:33:43;97.33;;;12.67;;
18793;SDS011;29610;49.022;12.114;2022-11-12T02:36:30;92.47;;;13.17;;
18793;SDS011;29610;49.022;12.114;2022-11-12T02:39:19;88.83;;;9.97;;
18793;SDS011;29610;49.022;12.114;2022-11-12T02:42:06;71.37;;;9.50;;
18793;SDS011;29610;49.022;12.114;2022-11-12T02:44:53;130.03;;;12.07;;
18793;SDS011;29610;49.022;12.114;2022-11-12T02:47:41;95.10;;;9.93;;
18793;SDS011;29610;49.022;12.114;2022-11-12T02:50:28;84.17;;;10.47;;
18793;SDS011;29610;49.022;12.114;2022-11-12T02:53:15;63.30;;;9.77;;
18793;SDS011;29610;49.022;12.114;2022-11-12T02:56:04;68.87;;;10.77;;
18793;SDS011;29610;49.022;12.114;2022-11-12T02:58:52;61.97;;;8.37;;
18793;SDS011;29610;49.022;12.114;2022-11-12T03:01:39;99.50;;;9.90;;
18793;SDS011;29610;49.022;12.114;2022-11-12T03:04:26;65.70;;;9.30;;
18793;SDS011;29610;49.022;12.114;2022-11-12T03:07:13;54.53;;;8.00;;
18793;SDS011;29610;49.022;12.114;2022-11-12T03:10:00;105.07;;;9.33;;
18793;SDS011;29610;49.022;12.114;2022-11-12T03:12:50;63.80;;;8.23;;
18793;SDS011;29610;49.022;12.114;2022-11-12T03:15:37;70.77;;;8.60;;
18793;SDS011;29610;49.022;12.114;2022-11-12T03:18:24;55.93;;;7.57;;
18793;SDS011;29610;49.022;12.114;2022-11-12T03:21:12;49.13;;;7.53;;
18793;SDS011;29610;49.022;12.114;2022-11-12T03:23:59;77.27;;;8.67;;
18793;SDS011;29610;49.022;12.114;2022-11-12T03:26:46;69.97;;;8.00;;
18793;SDS011;29610;49.022;12.114;2022-11-12T03:29:35;81.77;;;10.60;;
18793;SDS011;29610;49.022;12.114;2022-11-12T03:32:22;46.20;;;8.00;;
18793;SDS011;29610;49.022;12.114;2022-11-12T03:35:10;69.33;;;9.90;;
18793;SDS011;29610;49.022;12.114;2022-11-12T03:37:57;60.13;;;9.17;;
18793;SDS011;29610;49.022;12.114;2022-11-12T03:40:44;37.53;;;10.03;;
18793;SDS011;29610;49.022;12.114;2022-11-12T03:43:31;140.73;;;11.00;;
18793;SDS011;29610;49.022;12.114;2022-11-12T03:46:20;47.00;;;7.43;;
18793;SDS011;29610;49.022;12.114;2022-11-12T03:49:07;60.30;;;11.20;;
18793;SDS011;29610;49.022;12.114;2022-11-12T03:51:54;58.20;;;8.93;;
18793;SDS011;29610;49.022;12.114;2022-11-12T03:54:41;63.57;;;13.73;;
18793;SDS011;29610;49.022;12.114;2022-11-12T03:57:28;80.87;;;9.80;;
18793;SDS011;29610;49.022;12.114;2022-11-12T04:00:16;143.57;;;12.20;;
18793;SDS011;29610;49.022;12.114;2022-11-12T04:03:06;68.40;;;9.40;;
18793;SDS011;29610;49.022;12.114;2022-11-12T04:05:53;86.10;;;10.63;;
18793;SDS011;29610;49.022;12.114;2022-11-12T04:08:58;65.73;;;8.80;;
18793;SDS011;29610;49.022;12.114;2022-11-12T04:11:45;100.97;;;9.43;;
18793;SDS011;29610;49.022;12.114;2022-11-12T04:14:32;30.43;;;7.27;;
18793;SDS011;29610;49.022;12.114;2022-11-12T04:17:19;105.53;;;10.57;;
18793;SDS011;29610;49.022;12.114;2022-11-12T04:20:25;74.13;;;8.80;;
18793;SDS011;29610;49.022;12.114;2022-11-12T04:23:53;49.73;;;8.90;;
18793;SDS011;29610;49.022;12.114;2022-11-12T04:26:40;149.60;;;11.20;;
18793;SDS011;29610;49.022;12.114;2022-11-12T04:29:29;45.63;;;7.43;;
18793;SDS011;29610;49.022;12.114;2022-11-12T04:32:34;47.97;;;9.93;;
18793;SDS011;29610;49.022;12.114;2022-11-12T04:35:26;145.97;;;11.53;;
18793;SDS011;29610;49.022;12.114;2022-11-12T04:38:13;81.27;;;10.00;;
18793;SDS011;29610;49.022;12.114;2022-11-12T04:41:00;131.03;;;10.87;;
18793;SDS011;29610;49.022;12.114;2022-11-12T04:44:05;89.77;;;9.00;;
18793;SDS011;29610;49.022;12.114;2022-11-12T04:47:14;97.23;;;8.40;;
18793;SDS011;29610;49.022;12.114;2022-11-12T04:50:02;57.20;;;8.90;;
18793;SDS011;29610;49.022;12.114;2022-11-12T04:53:04;141.57;;;11.90;;
18793;SDS011;29610;49.022;12.114;2022-11-12T04:55:51;89.60;;;9.10;;
18793;SDS011;29610;49.022;12.114;2022-11-12T04:58:39;100.90;;;10.13;;
18793;SDS011;29610;49.022;12.114;2022-11-12T05:01:26;172.03;;;13.10;;
18793;SDS011;29610;49.022;12.114;2022-11-12T05:04:13;86.10;;;9.97;;
18793;SDS011;29610;49.022;12.114;2022-11-12T05:07:00;67.23;;;8.20;;
18793;SDS011;29610;49.022;12.114;2022-11-12T05:09:49;125.90;;;11.47;;
18793;SDS011;29610;49.022;12.114;2022-11-12T05:12:36;112.60;;;10.80;;
18793;SDS011;29610;49.022;12.114;2022-11-12T05:15:23;97.93;;;10.80;;
18793;SDS011;29610;49.022;12.114;2022-11-12T05:18:10;76.00;;;7.93;;
18793;SDS011;29610;49.022;12.114;2022-11-12T05:20:57;160.77;;;12.13;;
18793;SDS011;29610;49.022;12.114;2022-11-12T05:24:05;120.33;;;10.40;;
18793;SDS011;29610;49.022;12.114;2022-11-12T05:27:14;60.60;;;8.40;;
18793;SDS011;29610;49.022;12.114;2022-11-12T05:30:04;112.47;;;9.70;;
18793;SDS011;29610;49.022;12.114;2022-11-12T05:32:52;38.23;;;6.43;;
18793;SDS011;29610;49.022;12.114;2022-11-12T05:35:39;136.57;;;11.37;;
18793;SDS011;29610;49.022;12.114;2022-11-12T05:38:27;86.50;;;9.17;;
18793;SDS011;29610;49.022;12.114;2022-11-12T05:41:14;100.87;;;9.93;;
18793;SDS011;29610;49.022;12.114;2022-11-12T05:44:05;104.97;;;10.27;;
18793;SDS011;29610;49.022;12.114;2022-11-12T05:46:52;112.30;;;8.80;;
18793;SDS011;29610;49.022;12.114;2022-11-12T05:49:40;82.63;;;9.40;;
18793;SDS011;29610;49.022;12.114;2022-11-12T05:52:27;104.60;;;8.57;;
18793;SDS011;29610;49.022;12.114;2022-11-12T05:55:14;113.50;;;9.03;;
18793;SDS011;29610;49.022;12.114;2022-11-12T05:58:03;113.53;;;9.20;;
18793;SDS011;29610;49.022;12.114;2022-11-12T06:00:52;124.50;;;10.70;;
18793;SDS011;29610;49.022;12.114;2022-11-12T06:03:39;103.30;;;9.83;;
18793;SDS011;29610;49.022;12.114;2022-11-12T06:06:26;45.80;;;7.07;;
18793;SDS011;29610;49.022;12.114;2022-11-12T06:09:13;82.53;;;9.00;;
18793;SDS011;29610;49.022;12.114;2022-11-12T06:12:00;40.77;;;7.23;;
18793;SDS011;29610;49.022;12.114;2022-11-12T06:14:50;147.33;;;12.07;;
18793;SDS011;29610;49.022;12.114;2022-11-12T06:17:38;104.30;;;9.63;;
18793;SDS011;29610;49.022;12.114;2022-11-12T06:20:27;76.73;;;8.00;;
18793;SDS011;29610;49.022;12.114;2022-11-12T06:23:14;80.90;;;11.10;;
18793;SDS011;29610;49.022;12.114;2022-11-12T06:26:02;61.83;;;8.40;;
18793;SDS011;29610;49.022;12.114;2022-11-12T06:28:50;56.33;;;8.73;;
18793;SDS011;29610;49.022;12.114;2022-11-12T06:31:38;44.47;;;7.43;;
18793;SDS011;29610;49.022;12.114;2022-11-12T06:34:26;57.47;;;9.83;;
18793;SDS011;29610;49.022;12.114;2022-11-12T06:37:13;59.67;;;9.03;;
18793;SDS011;29610;49.022;12.114;2022-11-12T06:40:00;42.47;;;7.37;;
18793;SDS011;29610;49.022;12.114;2022-11-12T06:42:54;62.20;;;9.50;;
18793;SDS011;29610;49.022;12.114;2022-11-12T06:45:42;97.13;;;9.20;;
18793;SDS011;29610;49.022;12.114;2022-11-12T06:48:30;99.90;;;9.23;;
18793;SDS011;29610;49.022;12.114;2022-11-12T06:51:19;50.73;;;10.90;;
18793;SDS011;29610;49.022;12.114;2022-11-12T06:54:06;87.63;;;8.97;;
18793;SDS011;29610;49.022;12.114;2022-11-12T06:56:54;117.93;;;10.57;;
18793;SDS011;29610;49.022;12.114;2022-11-12T06:59:41;77.83;;;8.97;;
18793;SDS011;29610;49.022;12.114;2022-11-12T07:02:28;39.50;;;6.70;;
18793;SDS011;29610;49.022;12.114;2022-11-12T07:05:16;46.03;;;6.90;;
18793;SDS011;29610;49.022;12.114;2022-11-12T07:08:04;63.33;;;7.60;;
18793;SDS011;29610;49.022;12.114;2022-11-12T07:10:54;82.37;;;10.10;;
18793;SDS011;29610;49.022;12.114;2022-11-12T07:13:42;75.40;;;9.87;;
18793;SDS011;29610;49.022;12.114;2022-11-12T07:16:31;88.20;;;9.60;;
18793;SDS011;29610;49.022;12.114;2022-11-12T07:19:18;52.03;;;8.73;;
18793;SDS011;29610;49.022;12.114;2022-11-12T07:22:05;33.80;;;7.90;;
18793;SDS011;29610;49.022;12.114;2022-11-12T07:24:54;122.17;;;12.80;;
18793;SDS011;29610;49.022;12.114;2022-11-12T07:27:41;59.83;;;9.13;;
18793;SDS011;29610;49.022;12.114;2022-11-12T07:30:28;105.43;;;9.67;;
18793;SDS011;29610;49.022;12.114;2022-11-12T07:33:16;110.97;;;11.90;;
18793;SDS011;29610;49.022;12.114;2022-11-12T07:36:04;98.10;;;8.60;;
18793;SDS011;29610;49.022;12.114;2022-11-12T07:38:54;76.60;;;9.20;;
18793;SDS011;29610;49.022;12.114;2022-11-12T07:41:42;77.00;;;8.53;;
18793;SDS011;29610;49.022;12.114;2022-11-12T07:44:30;74.17;;;8.63;;
18793;SDS011;29610;49.022;12.114;2022-11-12T07:47:17;95.53;;;8.33;;
18793;SDS011;29610;49.022;12.114;2022-11-12T07:50:05;99.63;;;9.80;;
18793;SDS011;29610;49.022;12.114;2022-11-12T07:52:53;108.30;;;10.90;;
18793;SDS011;29610;49.022;12.114;2022-11-12T07:55:51;62.40;;;9.50;;
18793;SDS011;29610;49.022;12.114;2022-11-12T07:58:41;58.40;;;9.20;;
18793;SDS011;29610;49.022;12.114;2022-11-12T08:01:30;71.30;;;9.97;;
18793;SDS011;29610;49.022;12.114;2022-11-12T08:04:20;74.20;;;10.43;;
18793;SDS011;29610;49.022;12.114;2022-11-12T08:07:08;53.10;;;9.23;;
18793;SDS011;29610;49.022;12.114;2022-11-12T08:09:55;60.97;;;9.80;;
18793;SDS011;29610;49.022;12.114;2022-11-12T08:12:43;110.93;;;12.60;;
18793;SDS011;29610;49.022;12.114;2022-11-12T08:15:32;89.33;;;9.67;;
18793;SDS011;29610;49.022;12.114;2022-11-12T08:18:19;69.63;;;8.60;;
18793;SDS011;29610;49.022;12.114;2022-11-12T08:21:06;45.50;;;9.00;;
18793;SDS011;29610;49.022;12.114;2022-11-12T08:23:58;79.03;;;9.07;;
18793;SDS011;29610;49.022;12.114;2022-11-12T08:26:46;124.03;;;10.57;;
18793;SDS011;29610;49.022;12.114;2022-11-12T08:29:34;87.10;;;8.43;;
18793;SDS011;29610;49.022;12.114;2022-11-12T08:32:22;55.23;;;8.47;;
18793;SDS011;29610;49.022;12.114;2022-11-12T08:35:10;47.30;;;7.83;;
18793;SDS011;29610;49.022;12.114;2022-11-12T08:37:57;72.13;;;9.80;;
18793;SDS011;29610;49.022;12.114;2022-11-12T08:40:47;23.77;;;6.73;;
18793;SDS011;29610;49.022;12.114;2022-11-12T08:43:34;51.60;;;8.00;;
18793;SDS011;29610;49.022;12.114;2022-11-12T08:46:23;62.60;;;10.07;;
18793;SDS011;29610;49.022;12.114;2022-11-12T08:49:11;47.50;;;8.50;;
18793;SDS011;29610;49.022;12.114;2022-11-12T08:51:59;43.60;;;8.57;;
18793;SDS011;29610;49.022;12.114;2022-11-12T08:54:46;50.40;;;9.80;;
18793;SDS011;29610;49.022;12.114;2022-11-12T08:57:37;124.17;;;12.50;;
18793;SDS011;29610;49.022;12.114;2022-11-12T09:00:27;29.00;;;10.43;;
18793;SDS011;29610;49.022;12.114;2022-11-12T09:03:15;56.77;;;10.30;;
18793;SDS011;29610;49.022;12.114;2022-11-12T09:06:06;74.80;;;10.37;;
18793;SDS011;29610;49.022;12.114;2022-11-12T09:08:54;39.33;;;9.10;;
18793;SDS011;29610;49.022;12.114;2022-11-12T09:11:42;54.50;;;9.83;;
18793;SDS011;29610;49.022;12.114;2022-11-12T09:14:29;31.37;;;9.00;;
18793;SDS011;29610;49.022;12.114;2022-11-12T09:17:16;30.70;;;10.70;;
18793;SDS011;29610;49.022;12.114;2022-11-12T09:20:04;61.03;;;9.10;;
18793;SDS011;29610;49.022;12.114;2022-11-12T09:22:55;63.10;;;7.80;;
18793;SDS011;29610;49.022;12.114;2022-11-12T09:25:45;35.23;;;7.47;;
18793;SDS011;29610;49.022;12.114;2022-11-12T09:28:32;73.60;;;11.73;;
18793;SDS011;29610;49.022;12.114;2022-11-12T09:31:20;58.80;;;9.10;;
18793;SDS011;29610;49.022;12.114;2022-11-12T09:34:09;33.50;;;9.20;;
18793;SDS011;29610;49.022;12.114;2022-11-12T09:36:57;41.23;;;8.60;;
18793;SDS011;29610;49.022;12.114;2022-11-12T09:39:46;58.43;;;8.73;;
18793;SDS011;29610;49.022;12.114;2022-11-12T09:42:33;25.63;;;7.77;;
18793;SDS011;29610;49.022;12.114;2022-11-12T09:45:23;17.00;;;8.23;;
18793;SDS011;29610;49.022;12.114;2022-11-12T09:48:17;27.20;;;7.90;;
18793;SDS011;29610;49.022;12.114;2022-11-12T09:51:15;22.43;;;7.80;;
18793;SDS011;29610;49.022;12.114;2022-11-12T09:54:23;29.70;;;6.83;;
18793;SDS011;29610;49.022;12.114;2022-11-12T09:57:14;20.10;;;6.00;;
18793;SDS011;29610;49.022;12.114;2022-11-12T10:03:05;17.50;;;7.80;;
18793;SDS011;29610;49.022;12.114;2022-11-12T10:06:11;22.73;;;6.30;;
18793;SDS011;29610;49.022;12.114;2022-11-12T10:09:07;14.23;;;6.20;;
18793;SDS011;29610;49.022;12.114;2022-11-12T10:12:01;20.63;;;7.10;;
18793;SDS011;29610;49.022;12.114;2022-11-12T10:19:09;15.00;;;6.50;;
18793;SDS011;29610;49.022;12.114;2022-11-12T10:22:16;11.67;;;5.43;;
18793;SDS011;29610;49.022;12.114;2022-11-12T10:25:24;11.17;;;5.10;;
18793;SDS011;29610;49.022;12.114;2022-11-12T10:28:15;12.27;;;6.17;;
18793;SDS011;29610;49.022;12.114;2022-11-12T10:31:16;10.27;;;4.90;;
18793;SDS011;29610;49.022;12.114;2022-11-12T10:34:15;13.87;;;6.37;;
18793;SDS011;29610;49.022;12.114;2022-11-12T10:37:10;12.23;;;4.80;;
18793;SDS011;29610;49.022;12.114;2022-11-12T10:43:20;11.23;;;5.70;;
18793;SDS011;29610;49.022;12.114;2022-11-12T10:46:13;10.97;;;5.30;;
18793;SDS011;29610;49.022;12.114;2022-11-12T10:49:20;11.77;;;5.00;;
18793;SDS011;29610;49.022;12.114;2022-11-12T10:52:19;11.17;;;5.20;;
18793;SDS011;29610;49.022;12.114;2022-11-12T10:55:14;10.07;;;4.60;;
18793;SDS011;29610;49.022;12.114;2022-11-12T10:58:14;12.37;;;5.80;;
18793;SDS011;29610;49.022;12.114;2022-11-12T11:01:07;11.20;;;5.80;;
18793;SDS011;29610;49.022;12.114;2022-11-12T11:04:03;15.37;;;5.90;;
18793;SDS011;29610;49.022;12.114;2022-11-12T11:07:02;12.67;;;6.07;;
18793;SDS011;29610;49.022;12.114;2022-11-12T11:09:53;16.73;;;4.90;;
18793;SDS011;29610;49.022;12.114;2022-11-12T11:12:41;12.60;;;5.60;;
18793;SDS011;29610;49.022;12.114;2022-11-12T11:15:29;13.27;;;6.40;;
18793;SDS011;29610;49.022;12.114;2022-11-12T11:18:16;13.00;;;5.00;;
18793;SDS011;29610;49.022;12.114;2022-11-12T11:21:07;12.60;;;6.67;;
18793;SDS011;29610;49.022;12.114;2022-11-12T11:24:19;12.23;;;5.77;;
18793;SDS011;29610;49.022;12.114;2022-11-12T11:27:23;14.97;;;7.33;;
18793;SDS011;29610;49.022;12.114;2022-11-12T11:30:21;16.23;;;7.70;;
18793;SDS011;29610;49.022;12.114;2022-11-12T11:33:14;14.27;;;7.93;;
18793;SDS011;29610;49.022;12.114;2022-11-12T11:36:23;16.80;;;6.93;;
18793;SDS011;29610;49.022;12.114;2022-11-12T11:39:24;13.37;;;6.57;;
18793;SDS011;29610;49.022;12.114;2022-11-12T11:42:33;17.03;;;6.60;;
18793;SDS011;29610;49.022;12.114;2022-11-12T11:45:55;10.83;;;5.17;;
18793;SDS011;29610;49.022;12.114;2022-11-12T11:48:59;17.20;;;6.53;;
18793;SDS011;29610;49.022;12.114;2022-11-12T11:52:11;12.13;;;5.20;;
18793;SDS011;29610;49.022;12.114;2022-11-12T11:55:37;11.30;;;3.93;;
18793;SDS011;29610;49.022;12.114;2022-11-12T11:58:48;10.30;;;4.73;;
18793;SDS011;29610;49.022;12.114;2022-11-12T12:02:03;10.20;;;4.30;;
18793;SDS011;29610;49.022;12.114;2022-11-12T12:05:17;10.87;;;4.80;;
18793;SDS011;29610;49.022;12.114;2022-11-12T12:08:21;10.30;;;3.83;;
18793;SDS011;29610;49.022;12.114;2022-11-12T12:11:22;8.60;;;3.30;;
18793;SDS011;29610;49.022;12.114;2022-11-12T12:14:23;9.80;;;3.77;;
18793;SDS011;29610;49.022;12.114;2022-11-12T12:17:31;13.43;;;4.33;;
18793;SDS011;29610;49.022;12.114;2022-11-12T12:20:31;9.90;;;4.50;;
18793;SDS011;29610;49.022;12.114;2022-11-12T12:23:30;9.47;;;3.80;;
18793;SDS011;29610;49.022;12.114;2022-11-12T12:26:24;10.47;;;4.00;;
18793;SDS011;29610;49.022;12.114;2022-11-12T12:29:16;10.10;;;4.13;;
18793;SDS011;29610;49.022;12.114;2022-11-12T12:32:15;9.30;;;4.13;;
18793;SDS011;29610;49.022;12.114;2022-11-12T12:35:12;12.03;;;4.60;;
18793;SDS011;29610;49.022;12.114;2022-11-12T12:38:10;11.10;;;4.73;;
18793;SDS011;29610;49.022;12.114;2022-11-12T12:41:08;16.70;;;5.27;;
18793;SDS011;29610;49.022;12.114;2022-11-12T12:44:05;11.70;;;5.37;;
18793;SDS011;29610;49.022;12.114;2022-11-12T12:46:56;11.37;;;5.63;;
18793;SDS011;29610;49.022;12.114;2022-11-12T12:49:46;12.50;;;5.90;;
18793;SDS011;29610;49.022;12.114;2022-11-12T12:55:50;19.10;;;7.83;;
18793;SDS011;29610;49.022;12.114;2022-11-12T12:58:42;14.80;;;6.93;;
18793;SDS011;29610;49.022;12.114;2022-11-12T13:01:34;15.07;;;7.20;;
18793;SDS011;29610;49.022;12.114;2022-11-12T13:08:01;12.17;;;6.13;;
18793;SDS011;29610;49.022;12.114;2022-11-12T13:10:56;13.40;;;6.77;;
18793;SDS011;29610;49.022;12.114;2022-11-12T13:13:45;11.90;;;6.20;;
18793;SDS011;29610;49.022;12.114;2022-11-12T13:16:54;11.23;;;5.90;;
18793;SDS011;29610;49.022;12.114;2022-11-12T13:19:47;13.57;;;6.90;;
18793;SDS011;29610;49.022;12.114;2022-11-12T13:23:46;12.77;;;6.07;;
18793;SDS011;29610;49.022;12.114;2022-11-12T13:26:55;11.43;;;5.43;;
18793;SDS011;29610;49.022;12.114;2022-11-12T13:29:46;12.80;;;6.33;;
18793;SDS011;29610;49.022;12.114;2022-11-12T13:32:34;13.80;;;6.57;;
18793;SDS011;29610;49.022;12.114;2022-11-12T13:35:28;11.80;;;6.47;;
18793;SDS011;29610;49.022;12.114;2022-11-12T13:38:25;11.70;;;6.03;;
18793;SDS011;29610;49.022;12.114;2022-11-12T13:41:16;15.10;;;7.30;;
18793;SDS011;29610;49.022;12.114;2022-11-12T13:44:30;11.30;;;5.50;;
18793;SDS011;29610;49.022;12.114;2022-11-12T13:47:35;13.33;;;6.93;;
18793;SDS011;29610;49.022;12.114;2022-11-12T13:50:29;16.00;;;8.43;;
18793;SDS011;29610;49.022;12.114;2022-11-12T13:53:48;13.00;;;6.90;;
18793;SDS011;29610;49.022;12.114;2022-11-12T13:56:44;16.17;;;7.17;;
18793;SDS011;29610;49.022;12.114;2022-11-12T13:59:31;23.97;;;8.97;;
18793;SDS011;29610;49.022;12.114;2022-11-12T14:02:22;14.10;;;7.13;;
18793;SDS011;29610;49.022;12.114;2022-11-12T14:05:17;15.77;;;7.83;;
18793;SDS011;29610;49.022;12.114;2022-11-12T14:08:21;24.83;;;10.20;;
18793;SDS011;29610;49.022;12.114;2022-11-12T14:11:49;24.37;;;8.13;;
18793;SDS011;29610;49.022;12.114;2022-11-12T14:15:00;19.13;;;8.13;;
18793;SDS011;29610;49.022;12.114;2022-11-12T14:18:11;19.93;;;7.67;;
18793;SDS011;29610;49.022;12.114;2022-11-12T14:21:14;14.80;;;7.27;;
18793;SDS011;29610;49.022;12.114;2022-11-12T14:24:08;18.90;;;7.97;;
18793;SDS011;29610;49.022;12.114;2022-11-12T14:27:19;29.93;;;9.43;;
18793;SDS011;29610;49.022;12.114;2022-11-12T14:30:21;16.97;;;9.40;;
18793;SDS011;29610;49.022;12.114;2022-11-12T14:33:16;18.83;;;9.00;;
18793;SDS011;29610;49.022;12.114;2022-11-12T14:36:14;23.47;;;10.50;;
18793;SDS011;29610;49.022;12.114;2022-11-12T14:39:08;27.63;;;8.90;;
18793;SDS011;29610;49.022;12.114;2022-11-12T14:41:58;31.73;;;10.90;;
18793;SDS011;29610;49.022;12.114;2022-11-12T14:44:46;23.27;;;11.03;;
18793;SDS011;29610;49.022;12.114;2022-11-12T14:47:34;20.33;;;11.10;;
18793;SDS011;29610;49.022;12.114;2022-11-12T14:50:24;31.27;;;14.60;;
18793;SDS011;29610;49.022;12.114;2022-11-12T14:53:30;46.83;;;11.50;;
18793;SDS011;29610;49.022;12.114;2022-11-12T14:56:27;35.17;;;12.40;;
18793;SDS011;29610;49.022;12.114;2022-11-12T14:59:25;38.53;;;13.87;;
18793;SDS011;29610;49.022;12.114;2022-11-12T15:02:13;29.00;;;12.97;;
18793;SDS011;29610;49.022;12.114;2022-11-12T15:05:31;76.43;;;14.70;;
18793;SDS011;29610;49.022;12.114;2022-11-12T15:08:30;149.57;;;16.23;;
18793;SDS011;29610;49.022;12.114;2022-11-12T15:11:28;58.73;;;13.70;;
18793;SDS011;29610;49.022;12.114;2022-11-12T15:14:21;35.47;;;13.17;;
18793;SDS011;29610;49.022;12.114;2022-11-12T15:17:25;43.73;;;14.67;;
18793;SDS011;29610;49.022;12.114;2022-11-12T15:20:17;91.00;;;17.17;;
18793;SDS011;29610;49.022;12.114;2022-11-12T15:23:12;44.87;;;14.67;;
18793;SDS011;29610;49.022;12.114;2022-11-12T15:26:10;71.90;;;17.03;;
18793;SDS011;29610;49.022;12.114;2022-11-12T15:29:14;88.10;;;15.10;;
18793;SDS011;29610;49.022;12.114;2022-11-12T15:35:31;101.43;;;16.80;;
18793;SDS011;29610;49.022;12.114;2022-11-12T15:38:23;84.47;;;14.43;;
18793;SDS011;29610;49.022;12.114;2022-11-12T15:41:22;79.77;;;13.50;;
18793;SDS011;29610;49.022;12.114;2022-11-12T15:44:13;193.67;;;19.33;;
18793;SDS011;29610;49.022;12.114;2022-11-12T15:47:01;166.77;;;20.03;;
18793;SDS011;29610;49.022;12.114;2022-11-12T15:49:49;116.63;;;18.80;;
18793;SDS011;29610;49.022;12.114;2022-11-12T15:52:38;79.63;;;13.80;;
18793;SDS011;29610;49.022;12.114;2022-11-12T15:55:26;207.53;;;20.20;;
18793;SDS011;29610;49.022;12.114;2022-11-12T15:58:16;245.97;;;22.63;;
18793;SDS011;29610;49.022;12.114;2022-11-12T16:01:16;291.67;;;27.13;;
18793;SDS011;29610;49.022;12.114;2022-11-12T16:04:03;111.57;;;16.87;;
18793;SDS011;29610;49.022;12.114;2022-11-12T16:06:50;182.80;;;22.87;;
18793;SDS011;29610;49.022;12.114;2022-11-12T16:09:38;178.70;;;22.77;;
18793;SDS011;29610;49.022;12.114;2022-11-12T16:12:25;80.03;;;16.80;;
18793;SDS011;29610;49.022;12.114;2022-11-12T16:15:15;155.67;;;16.90;;
18793;SDS011;29610;49.022;12.114;2022-11-12T16:18:04;158.23;;;19.40;;
18793;SDS011;29610;49.022;12.114;2022-11-12T16:20:55;230.47;;;21.57;;
18793;SDS011;29610;49.022;12.114;2022-11-12T16:23:43;304.60;;;24.50;;
18793;SDS011;29610;49.022;12.114;2022-11-12T16:26:30;135.50;;;18.07;;
18793;SDS011;29610;49.022;12.114;2022-11-12T16:29:18;72.90;;;14.10;;
18793;SDS011;29610;49.022;12.114;2022-11-12T16:32:11;216.47;;;20.13;;
18793;SDS011;29610;49.022;12.114;2022-11-12T16:34:59;146.07;;;16.67;;
18793;SDS011;29610;49.022;12.114;2022-11-12T16:37:47;143.37;;;22.40;;
18793;SDS011;29610;49.022;12.114;2022-11-12T16:40:35;381.40;;;29.10;;
18793;SDS011;29610;49.022;12.114;2022-11-12T16:43:22;40.43;;;15.20;;
18793;SDS011;29610;49.022;12.114;2022-11-12T16:46:16;38.07;;;14.87;;
18793;SDS011;29610;49.022;12.114;2022-11-12T16:49:13;267.70;;;24.37;;
18793;SDS011;29610;49.022;12.114;2022-11-12T16:52:01;116.57;;;21.40;;
18793;SDS011;29610;49.022;12.114;2022-11-12T16:54:48;162.43;;;21.77;;
18793;SDS011;29610;49.022;12.114;2022-11-12T16:57:35;183.63;;;27.97;;
18793;SDS011;29610;49.022;12.114;2022-11-12T17:00:24;134.37;;;19.50;;